Mount Croghan, South Carolina
Current Conditions -  °F | °C
As of 2:15 PM on Monday 22 Dec 2014 (Local Time) from KCQW Reporting Station
Haze Haze  
Wind Chill: 34°   Ceiling: Unl
Heat Index: 39°   Visibility: 3mi
Dew Point: 39°   Wind: 7mph
Humidity: 100%   Direction: 40°NE
Pressure: 30.02"   Gusts: NA
Location:  34.77°N, 80.23°W
Report Text: KCQW 221915Z AUTO 04006KT 3SM BR FEW003 04/04 A3002 RMK AO2
Loading
Personal Weather Stations






























Interactive Weather Map New forecast layout! Learn more

10-Day Weather Forecast

Advertisements
Track Severe Weather on mobile